sensor_id;sensor_type;location;lat;lon;timestamp;temperature;humidity
46488;DHT22;32202;48.780;9.204;2022-09-09T00:02:16;16.40;92.80
46488;DHT22;32202;48.780;9.204;2022-09-09T00:04:56;16.40;92.80
46488;DHT22;32202;48.780;9.204;2022-09-09T00:07:32;16.40;92.70
46488;DHT22;32202;48.780;9.204;2022-09-09T00:18:23;16.40;92.50
46488;DHT22;32202;48.780;9.204;2022-09-09T00:20:57;16.40;92.40
46488;DHT22;32202;48.780;9.204;2022-09-09T00:23:33;16.40;92.20
46488;DHT22;32202;48.780;9.204;2022-09-09T00:26:03;16.40;92.10
46488;DHT22;32202;48.780;9.204;2022-09-09T00:28:32;16.40;92.10
46488;DHT22;32202;48.780;9.204;2022-09-09T00:31:12;16.50;92.20
46488;DHT22;32202;48.780;9.204;2022-09-09T00:33:38;16.50;92.10
46488;DHT22;32202;48.780;9.204;2022-09-09T00:36:10;16.60;91.50
46488;DHT22;32202;48.780;9.204;2022-09-09T00:38:43;16.70;91.20
46488;DHT22;32202;48.780;9.204;2022-09-09T00:41:26;16.70;91.20
46488;DHT22;32202;48.780;9.204;2022-09-09T00:44:01;16.80;90.80
46488;DHT22;32202;48.780;9.204;2022-09-09T00:46:50;16.90;90.60
46488;DHT22;32202;48.780;9.204;2022-09-09T00:49:32;16.90;90.40
46488;DHT22;32202;48.780;9.204;2022-09-09T00:52:28;16.90;90.20
46488;DHT22;32202;48.780;9.204;2022-09-09T00:55:05;17.00;90.20
46488;DHT22;32202;48.780;9.204;2022-09-09T00:57:35;17.00;90.40
46488;DHT22;32202;48.780;9.204;2022-09-09T01:00:23;17.10;90.00
46488;DHT22;32202;48.780;9.204;2022-09-09T01:14:11;17.10;89.90
46488;DHT22;32202;48.780;9.204;2022-09-09T01:16:40;17.10;90.10
46488;DHT22;32202;48.780;9.204;2022-09-09T01:19:15;17.00;90.20
46488;DHT22;32202;48.780;9.204;2022-09-09T01:22:33;17.00;90.40
46488;DHT22;32202;48.780;9.204;2022-09-09T01:27:18;16.90;90.30
46488;DHT22;32202;48.780;9.204;2022-09-09T01:29:45;16.80;90.70
46488;DHT22;32202;48.780;9.204;2022-09-09T01:32:41;16.80;90.60
46488;DHT22;32202;48.780;9.204;2022-09-09T01:35:11;16.80;90.70
46488;DHT22;32202;48.780;9.204;2022-09-09T01:37:38;16.80;90.90
46488;DHT22;32202;48.780;9.204;2022-09-09T01:40:04;16.80;90.80
46488;DHT22;32202;48.780;9.204;2022-09-09T01:42:30;16.80;90.80
46488;DHT22;32202;48.780;9.204;2022-09-09T01:44:56;16.70;90.90
46488;DHT22;32202;48.780;9.204;2022-09-09T01:47:21;16.70;90.30
46488;DHT22;32202;48.780;9.204;2022-09-09T01:49:47;16.70;90.70
46488;DHT22;32202;48.780;9.204;2022-09-09T01:52:12;16.70;90.80
46488;DHT22;32202;48.780;9.204;2022-09-09T01:54:38;16.70;91.00
46488;DHT22;32202;48.780;9.204;2022-09-09T02:00:10;16.60;90.40
46488;DHT22;32202;48.780;9.204;2022-09-09T02:02:58;16.60;90.10
46488;DHT22;32202;48.780;9.204;2022-09-09T02:05:38;16.50;90.10
46488;DHT22;32202;48.780;9.204;2022-09-09T02:10:50;16.50;89.30
46488;DHT22;32202;48.780;9.204;2022-09-09T02:13:20;16.50;89.10
46488;DHT22;32202;48.780;9.204;2022-09-09T02:18:48;16.50;88.60
46488;DHT22;32202;48.780;9.204;2022-09-09T02:21:17;16.50;87.60
46488;DHT22;32202;48.780;9.204;2022-09-09T02:23:44;16.50;87.80
46488;DHT22;32202;48.780;9.204;2022-09-09T02:26:13;16.50;88.50
46488;DHT22;32202;48.780;9.204;2022-09-09T02:28:46;16.50;88.90
46488;DHT22;32202;48.780;9.204;2022-09-09T02:31:13;16.50;88.60
46488;DHT22;32202;48.780;9.204;2022-09-09T02:33:44;16.50;88.30
46488;DHT22;32202;48.780;9.204;2022-09-09T02:36:11;16.40;88.20
46488;DHT22;32202;48.780;9.204;2022-09-09T02:38:48;16.40;88.90
46488;DHT22;32202;48.780;9.204;2022-09-09T02:41:18;16.30;88.70
46488;DHT22;32202;48.780;9.204;2022-09-09T02:43:44;16.40;89.10
46488;DHT22;32202;48.780;9.204;2022-09-09T02:49:27;16.40;89.80
46488;DHT22;32202;48.780;9.204;2022-09-09T02:52:08;16.30;90.10
46488;DHT22;32202;48.780;9.204;2022-09-09T02:54:39;16.20;90.30
46488;DHT22;32202;48.780;9.204;2022-09-09T02:57:18;16.20;90.50
46488;DHT22;32202;48.780;9.204;2022-09-09T02:59:45;16.10;90.70
46488;DHT22;32202;48.780;9.204;2022-09-09T03:02:12;16.10;91.00
46488;DHT22;32202;48.780;9.204;2022-09-09T03:04:39;16.10;91.20
46488;DHT22;32202;48.780;9.204;2022-09-09T03:07:05;16.10;91.40
46488;DHT22;32202;48.780;9.204;2022-09-09T03:09:31;16.10;91.30
46488;DHT22;32202;48.780;9.204;2022-09-09T03:11:58;16.10;91.10
46488;DHT22;32202;48.780;9.204;2022-09-09T03:14:24;16.10;91.10
46488;DHT22;32202;48.780;9.204;2022-09-09T03:16:53;16.20;91.10
46488;DHT22;32202;48.780;9.204;2022-09-09T03:19:20;16.20;90.80
46488;DHT22;32202;48.780;9.204;2022-09-09T03:21:47;16.30;90.50
46488;DHT22;32202;48.780;9.204;2022-09-09T03:24:13;16.30;90.40
46488;DHT22;32202;48.780;9.204;2022-09-09T03:26:40;16.40;90.10
46488;DHT22;32202;48.780;9.204;2022-09-09T03:29:07;16.40;90.10
46488;DHT22;32202;48.780;9.204;2022-09-09T03:31:34;16.40;90.10
46488;DHT22;32202;48.780;9.204;2022-09-09T03:34:01;16.40;90.20
46488;DHT22;32202;48.780;9.204;2022-09-09T03:36:27;16.40;90.30
46488;DHT22;32202;48.780;9.204;2022-09-09T03:38:54;16.40;90.20
46488;DHT22;32202;48.780;9.204;2022-09-09T03:41:23;16.30;90.00
46488;DHT22;32202;48.780;9.204;2022-09-09T03:43:52;16.40;90.00
46488;DHT22;32202;48.780;9.204;2022-09-09T03:46:20;16.40;89.50
46488;DHT22;32202;48.780;9.204;2022-09-09T03:48:46;16.50;88.70
46488;DHT22;32202;48.780;9.204;2022-09-09T03:51:12;16.50;88.40
46488;DHT22;32202;48.780;9.204;2022-09-09T03:53:38;16.60;87.00
46488;DHT22;32202;48.780;9.204;2022-09-09T03:56:05;16.60;85.90
46488;DHT22;32202;48.780;9.204;2022-09-09T03:58:33;16.70;85.10
46488;DHT22;32202;48.780;9.204;2022-09-09T04:01:01;16.80;84.70
46488;DHT22;32202;48.780;9.204;2022-09-09T04:03:29;16.80;84.50
46488;DHT22;32202;48.780;9.204;2022-09-09T04:05:56;16.90;84.40
46488;DHT22;32202;48.780;9.204;2022-09-09T04:08:22;16.90;84.50
46488;DHT22;32202;48.780;9.204;2022-09-09T04:10:49;16.90;84.50
46488;DHT22;32202;48.780;9.204;2022-09-09T04:13:16;16.90;84.50
46488;DHT22;32202;48.780;9.204;2022-09-09T04:15:44;16.80;84.60
46488;DHT22;32202;48.780;9.204;2022-09-09T04:18:10;16.80;85.00
46488;DHT22;32202;48.780;9.204;2022-09-09T04:20:37;16.80;85.20
46488;DHT22;32202;48.780;9.204;2022-09-09T04:23:04;16.80;85.90
46488;DHT22;32202;48.780;9.204;2022-09-09T04:25:30;16.70;86.40
46488;DHT22;32202;48.780;9.204;2022-09-09T04:27:57;16.70;86.90
46488;DHT22;32202;48.780;9.204;2022-09-09T04:30:24;16.70;86.90
46488;DHT22;32202;48.780;9.204;2022-09-09T04:32:50;16.70;87.20
46488;DHT22;32202;48.780;9.204;2022-09-09T04:35:16;16.70;87.40
46488;DHT22;32202;48.780;9.204;2022-09-09T04:37:41;16.70;87.60
46488;DHT22;32202;48.780;9.204;2022-09-09T04:40:09;16.80;87.70
46488;DHT22;32202;48.780;9.204;2022-09-09T04:42:36;16.90;88.10
46488;DHT22;32202;48.780;9.204;2022-09-09T04:45:02;16.90;88.90
46488;DHT22;32202;48.780;9.204;2022-09-09T04:47:28;17.00;89.20
46488;DHT22;32202;48.780;9.204;2022-09-09T04:49:53;17.00;89.80
46488;DHT22;32202;48.780;9.204;2022-09-09T04:52:20;16.90;90.10
46488;DHT22;32202;48.780;9.204;2022-09-09T04:54:46;16.90;90.40
46488;DHT22;32202;48.780;9.204;2022-09-09T04:57:12;16.80;90.70
46488;DHT22;32202;48.780;9.204;2022-09-09T04:59:37;16.70;91.50
46488;DHT22;32202;48.780;9.204;2022-09-09T05:02:04;16.60;91.40
46488;DHT22;32202;48.780;9.204;2022-09-09T05:04:30;16.50;91.60
46488;DHT22;32202;48.780;9.204;2022-09-09T05:06:55;16.50;92.00
46488;DHT22;32202;48.780;9.204;2022-09-09T05:09:21;16.40;92.50
46488;DHT22;32202;48.780;9.204;2022-09-09T05:11:47;16.30;92.90
46488;DHT22;32202;48.780;9.204;2022-09-09T05:14:12;16.20;93.30
46488;DHT22;32202;48.780;9.204;2022-09-09T05:16:40;16.20;93.60
46488;DHT22;32202;48.780;9.204;2022-09-09T05:19:05;16.20;93.70
46488;DHT22;32202;48.780;9.204;2022-09-09T05:21:33;16.30;93.50
46488;DHT22;32202;48.780;9.204;2022-09-09T05:23:59;16.50;93.10
46488;DHT22;32202;48.780;9.204;2022-09-09T05:26:26;16.80;92.20
46488;DHT22;32202;48.780;9.204;2022-09-09T05:28:52;17.00;91.60
46488;DHT22;32202;48.780;9.204;2022-09-09T05:31:18;17.30;90.80
46488;DHT22;32202;48.780;9.204;2022-09-09T05:33:45;17.70;89.00
46488;DHT22;32202;48.780;9.204;2022-09-09T05:36:19;17.80;87.20
46488;DHT22;32202;48.780;9.204;2022-09-09T05:38:45;18.00;86.60
46488;DHT22;32202;48.780;9.204;2022-09-09T05:41:12;18.80;81.70
46488;DHT22;32202;48.780;9.204;2022-09-09T05:43:38;19.30;78.70
46488;DHT22;32202;48.780;9.204;2022-09-09T05:46:05;19.30;77.60
46488;DHT22;32202;48.780;9.204;2022-09-09T05:48:32;19.10;78.10
46488;DHT22;32202;48.780;9.204;2022-09-09T05:50:59;18.80;79.10
46488;DHT22;32202;48.780;9.204;2022-09-09T05:53:26;18.50;80.40
46488;DHT22;32202;48.780;9.204;2022-09-09T05:55:59;18.30;81.70
46488;DHT22;32202;48.780;9.204;2022-09-09T05:58:25;18.10;82.80
46488;DHT22;32202;48.780;9.204;2022-09-09T06:00:50;17.90;84.30
46488;DHT22;32202;48.780;9.204;2022-09-09T06:03:16;17.80;86.20
46488;DHT22;32202;48.780;9.204;2022-09-09T06:05:42;17.80;86.40
46488;DHT22;32202;48.780;9.204;2022-09-09T06:08:07;17.80;86.30
46488;DHT22;32202;48.780;9.204;2022-09-09T06:10:33;17.80;86.60
46488;DHT22;32202;48.780;9.204;2022-09-09T06:12:59;17.70;87.00
46488;DHT22;32202;48.780;9.204;2022-09-09T06:15:25;17.70;87.30
46488;DHT22;32202;48.780;9.204;2022-09-09T06:17:56;17.70;87.30
46488;DHT22;32202;48.780;9.204;2022-09-09T06:20:22;17.70;86.90
46488;DHT22;32202;48.780;9.204;2022-09-09T06:22:48;17.80;86.80
46488;DHT22;32202;48.780;9.204;2022-09-09T06:25:14;17.90;86.80
46488;DHT22;32202;48.780;9.204;2022-09-09T06:27:40;17.90;85.00
46488;DHT22;32202;48.780;9.204;2022-09-09T06:30:07;17.90;84.60
46488;DHT22;32202;48.780;9.204;2022-09-09T06:32:33;18.00;84.60
46488;DHT22;32202;48.780;9.204;2022-09-09T06:35:00;18.00;84.00
46488;DHT22;32202;48.780;9.204;2022-09-09T06:37:26;18.10;83.90
46488;DHT22;32202;48.780;9.204;2022-09-09T06:39:52;18.20;83.90
46488;DHT22;32202;48.780;9.204;2022-09-09T06:42:20;18.20;83.50
46488;DHT22;32202;48.780;9.204;2022-09-09T06:44:45;18.40;83.20
46488;DHT22;32202;48.780;9.204;2022-09-09T06:47:11;18.40;82.60
46488;DHT22;32202;48.780;9.204;2022-09-09T06:49:37;18.60;81.80
46488;DHT22;32202;48.780;9.204;2022-09-09T06:52:02;18.70;81.20
46488;DHT22;32202;48.780;9.204;2022-09-09T06:54:28;18.80;80.60
46488;DHT22;32202;48.780;9.204;2022-09-09T06:56:53;18.90;80.10
46488;DHT22;32202;48.780;9.204;2022-09-09T06:59:19;19.10;79.10
46488;DHT22;32202;48.780;9.204;2022-09-09T07:01:45;19.10;78.90
46488;DHT22;32202;48.780;9.204;2022-09-09T07:04:12;19.30;78.30
46488;DHT22;32202;48.780;9.204;2022-09-09T07:06:41;19.40;77.60
46488;DHT22;32202;48.780;9.204;2022-09-09T07:09:10;19.60;77.00
46488;DHT22;32202;48.780;9.204;2022-09-09T07:11:41;19.70;76.80
46488;DHT22;32202;48.780;9.204;2022-09-09T07:14:07;19.90;76.50
46488;DHT22;32202;48.780;9.204;2022-09-09T07:16:34;20.00;75.90
46488;DHT22;32202;48.780;9.204;2022-09-09T07:19:02;20.20;75.40
46488;DHT22;32202;48.780;9.204;2022-09-09T07:21:30;20.20;75.00
46488;DHT22;32202;48.780;9.204;2022-09-09T07:23:56;20.30;74.80
46488;DHT22;32202;48.780;9.204;2022-09-09T07:26:25;20.60;73.90
46488;DHT22;32202;48.780;9.204;2022-09-09T07:28:50;21.00;72.20
46488;DHT22;32202;48.780;9.204;2022-09-09T07:31:21;21.20;71.60
46488;DHT22;32202;48.780;9.204;2022-09-09T07:33:47;21.40;70.50
46488;DHT22;32202;48.780;9.204;2022-09-09T07:36:24;21.80;69.60
46488;DHT22;32202;48.780;9.204;2022-09-09T07:39:04;22.30;67.90
46488;DHT22;32202;48.780;9.204;2022-09-09T07:44:07;22.50;64.40
46488;DHT22;32202;48.780;9.204;2022-09-09T07:46:33;22.50;64.60
46488;DHT22;32202;48.780;9.204;2022-09-09T07:48:59;23.20;62.70
46488;DHT22;32202;48.780;9.204;2022-09-09T07:51:28;23.60;61.20
46488;DHT22;32202;48.780;9.204;2022-09-09T07:53:57;24.60;58.90
46488;DHT22;32202;48.780;9.204;2022-09-09T07:56:23;25.40;57.00
46488;DHT22;32202;48.780;9.204;2022-09-09T07:58:51;25.60;56.40
46488;DHT22;32202;48.780;9.204;2022-09-09T08:01:20;25.40;55.70
46488;DHT22;32202;48.780;9.204;2022-09-09T08:03:47;26.00;54.90
46488;DHT22;32202;48.780;9.204;2022-09-09T08:06:17;28.20;52.10
46488;DHT22;32202;48.780;9.204;2022-09-09T08:08:42;31.10;47.40
46488;DHT22;32202;48.780;9.204;2022-09-09T08:11:11;33.20;43.60
46488;DHT22;32202;48.780;9.204;2022-09-09T08:13:38;34.80;41.10
46488;DHT22;32202;48.780;9.204;2022-09-09T08:16:17;36.50;40.10
46488;DHT22;32202;48.780;9.204;2022-09-09T08:18:43;36.00;38.30
46488;DHT22;32202;48.780;9.204;2022-09-09T08:21:11;36.90;37.80
46488;DHT22;32202;48.780;9.204;2022-09-09T08:23:40;37.20;37.10
46488;DHT22;32202;48.780;9.204;2022-09-09T08:26:12;38.20;35.90
46488;DHT22;32202;48.780;9.204;2022-09-09T08:28:39;37.80;35.70
46488;DHT22;32202;48.780;9.204;2022-09-09T08:31:16;38.50;35.90
46488;DHT22;32202;48.780;9.204;2022-09-09T08:33:43;38.80;35.60
46488;DHT22;32202;48.780;9.204;2022-09-09T08:36:13;39.70;35.30
46488;DHT22;32202;48.780;9.204;2022-09-09T08:38:40;41.10;34.20
46488;DHT22;32202;48.780;9.204;2022-09-09T08:43:47;42.30;33.10
46488;DHT22;32202;48.780;9.204;2022-09-09T08:52:26;39.90;34.10
46488;DHT22;32202;48.780;9.204;2022-09-09T08:54:57;36.90;35.50
46488;DHT22;32202;48.780;9.204;2022-09-09T08:57:28;36.60;36.10
46488;DHT22;32202;48.780;9.204;2022-09-09T08:59:55;37.10;35.70
46488;DHT22;32202;48.780;9.204;2022-09-09T09:05:59;38.90;34.00
46488;DHT22;32202;48.780;9.204;2022-09-09T09:08:52;40.10;33.00
46488;DHT22;32202;48.780;9.204;2022-09-09T09:11:19;39.50;32.80
46488;DHT22;32202;48.780;9.204;2022-09-09T09:13:50;37.50;33.80
46488;DHT22;32202;48.780;9.204;2022-09-09T09:16:34;35.20;35.30
46488;DHT22;32202;48.780;9.204;2022-09-09T09:19:03;33.20;37.50
46488;DHT22;32202;48.780;9.204;2022-09-09T09:21:43;31.10;39.90
46488;DHT22;32202;48.780;9.204;2022-09-09T09:26:45;28.30;43.90
46488;DHT22;32202;48.780;9.204;2022-09-09T09:29:18;27.30;45.40
46488;DHT22;32202;48.780;9.204;2022-09-09T09:31:56;26.50;48.50
46488;DHT22;32202;48.780;9.204;2022-09-09T09:34:24;25.80;51.30
46488;DHT22;32202;48.780;9.204;2022-09-09T09:36:56;25.00;52.70
46488;DHT22;32202;48.780;9.204;2022-09-09T09:39:24;24.30;54.20
46488;DHT22;32202;48.780;9.204;2022-09-09T09:41:51;23.40;59.30
46488;DHT22;32202;48.780;9.204;2022-09-09T09:44:35;23.30;56.10
46488;DHT22;32202;48.780;9.204;2022-09-09T09:47:15;25.50;52.10
46488;DHT22;32202;48.780;9.204;2022-09-09T09:49:55;28.60;46.50
46488;DHT22;32202;48.780;9.204;2022-09-09T09:52:23;31.80;42.70
46488;DHT22;32202;48.780;9.204;2022-09-09T09:54:50;33.80;39.80
46488;DHT22;32202;48.780;9.204;2022-09-09T09:57:18;35.30;38.00
46488;DHT22;32202;48.780;9.204;2022-09-09T09:59:49;36.80;36.30
46488;DHT22;32202;48.780;9.204;2022-09-09T10:02:24;37.90;35.60
46488;DHT22;32202;48.780;9.204;2022-09-09T10:05:12;38.70;35.10
46488;DHT22;32202;48.780;9.204;2022-09-09T10:07:38;38.90;33.80
46488;DHT22;32202;48.780;9.204;2022-09-09T10:10:05;39.50;34.20
46488;DHT22;32202;48.780;9.204;2022-09-09T10:15:48;42.10;32.10
46488;DHT22;32202;48.780;9.204;2022-09-09T10:18:52;41.90;32.00
46488;DHT22;32202;48.780;9.204;2022-09-09T10:24:20;43.40;31.80
46488;DHT22;32202;48.780;9.204;2022-09-09T10:32:36;42.40;32.00
46488;DHT22;32202;48.780;9.204;2022-09-09T10:35:14;42.10;32.30
46488;DHT22;32202;48.780;9.204;2022-09-09T10:40:19;38.60;34.60
46488;DHT22;32202;48.780;9.204;2022-09-09T10:42:46;37.20;35.20
46488;DHT22;32202;48.780;9.204;2022-09-09T10:45:23;36.60;35.90
46488;DHT22;32202;48.780;9.204;2022-09-09T10:50:40;34.00;39.10
46488;DHT22;32202;48.780;9.204;2022-09-09T10:53:17;33.60;39.00
46488;DHT22;32202;48.780;9.204;2022-09-09T10:56:06;31.50;41.60
46488;DHT22;32202;48.780;9.204;2022-09-09T10:58:42;29.80;44.10
46488;DHT22;32202;48.780;9.204;2022-09-09T11:01:37;29.00;45.30
46488;DHT22;32202;48.780;9.204;2022-09-09T11:04:05;29.20;45.40
46488;DHT22;32202;48.780;9.204;2022-09-09T11:06:39;31.40;43.40
46488;DHT22;32202;48.780;9.204;2022-09-09T11:09:13;34.70;39.70
46488;DHT22;32202;48.780;9.204;2022-09-09T11:14:39;35.30;38.10
46488;DHT22;32202;48.780;9.204;2022-09-09T11:17:16;33.30;39.60
46488;DHT22;32202;48.780;9.204;2022-09-09T11:19:44;31.70;41.80
46488;DHT22;32202;48.780;9.204;2022-09-09T11:22:29;31.40;41.50
46488;DHT22;32202;48.780;9.204;2022-09-09T11:38:47;27.40;42.50
46488;DHT22;32202;48.780;9.204;2022-09-09T11:41:16;26.80;44.00
46488;DHT22;32202;48.780;9.204;2022-09-09T11:43:45;26.40;45.20
46488;DHT22;32202;48.780;9.204;2022-09-09T11:46:14;25.90;46.50
46488;DHT22;32202;48.780;9.204;2022-09-09T11:48:45;25.80;47.00
46488;DHT22;32202;48.780;9.204;2022-09-09T11:53:51;25.60;46.70
46488;DHT22;32202;48.780;9.204;2022-09-09T11:56:30;25.60;46.80
46488;DHT22;32202;48.780;9.204;2022-09-09T11:59:03;25.90;46.80
46488;DHT22;32202;48.780;9.204;2022-09-09T12:01:42;26.10;46.30
46488;DHT22;32202;48.780;9.204;2022-09-09T12:06:54;26.90;45.50
46488;DHT22;32202;48.780;9.204;2022-09-09T12:11:53;29.40;41.30
46488;DHT22;32202;48.780;9.204;2022-09-09T12:14:55;30.60;39.20
46488;DHT22;32202;48.780;9.204;2022-09-09T12:17:23;30.90;39.40
46488;DHT22;32202;48.780;9.204;2022-09-09T12:26:07;29.70;40.10
46488;DHT22;32202;48.780;9.204;2022-09-09T12:31:51;34.20;36.00
46488;DHT22;32202;48.780;9.204;2022-09-09T12:36:54;37.20;33.40
46488;DHT22;32202;48.780;9.204;2022-09-09T12:39:40;38.00;31.70
46488;DHT22;32202;48.780;9.204;2022-09-09T12:42:19;38.60;31.50
46488;DHT22;32202;48.780;9.204;2022-09-09T12:45:00;38.90;31.70
46488;DHT22;32202;48.780;9.204;2022-09-09T12:47:34;39.00;31.20
46488;DHT22;32202;48.780;9.204;2022-09-09T12:50:02;37.90;31.40
46488;DHT22;32202;48.780;9.204;2022-09-09T12:52:35;36.40;32.90
46488;DHT22;32202;48.780;9.204;2022-09-09T12:55:03;35.10;33.80
46488;DHT22;32202;48.780;9.204;2022-09-09T12:57:37;33.60;35.80
46488;DHT22;32202;48.780;9.204;2022-09-09T13:00:24;32.60;36.40
46488;DHT22;32202;48.780;9.204;2022-09-09T13:02:53;31.70;37.40
46488;DHT22;32202;48.780;9.204;2022-09-09T13:05:27;31.70;37.70
46488;DHT22;32202;48.780;9.204;2022-09-09T13:08:08;32.30;37.40
46488;DHT22;32202;48.780;9.204;2022-09-09T13:13:25;31.90;37.40
46488;DHT22;32202;48.780;9.204;2022-09-09T13:15:53;31.00;38.40
46488;DHT22;32202;48.780;9.204;2022-09-09T13:18:24;31.10;38.60
46488;DHT22;32202;48.780;9.204;2022-09-09T13:20:52;31.70;37.50
46488;DHT22;32202;48.780;9.204;2022-09-09T13:23:20;31.70;37.40
46488;DHT22;32202;48.780;9.204;2022-09-09T13:25:56;31.80;37.40
46488;DHT22;32202;48.780;9.204;2022-09-09T13:28:24;31.10;38.00
46488;DHT22;32202;48.780;9.204;2022-09-09T13:31:04;30.90;38.60
46488;DHT22;32202;48.780;9.204;2022-09-09T13:33:36;31.90;38.20
46488;DHT22;32202;48.780;9.204;2022-09-09T13:36:05;32.20;37.10
46488;DHT22;32202;48.780;9.204;2022-09-09T13:38:38;32.50;37.60
46488;DHT22;32202;48.780;9.204;2022-09-09T13:41:06;33.70;36.10
46488;DHT22;32202;48.780;9.204;2022-09-09T13:43:38;34.30;35.10
46488;DHT22;32202;48.780;9.204;2022-09-09T13:46:41;34.60;35.00
46488;DHT22;32202;48.780;9.204;2022-09-09T13:51:42;31.40;36.50
46488;DHT22;32202;48.780;9.204;2022-09-09T13:54:12;29.80;38.30
46488;DHT22;32202;48.780;9.204;2022-09-09T13:56:39;29.40;38.80
46488;DHT22;32202;48.780;9.204;2022-09-09T13:59:11;29.20;39.40
46488;DHT22;32202;48.780;9.204;2022-09-09T14:01:37;28.70;40.10
46488;DHT22;32202;48.780;9.204;2022-09-09T14:04:03;28.80;40.50
46488;DHT22;32202;48.780;9.204;2022-09-09T14:06:31;29.50;39.70
46488;DHT22;32202;48.780;9.204;2022-09-09T14:08:57;30.40;38.60
46488;DHT22;32202;48.780;9.204;2022-09-09T14:11:23;30.40;38.40
46488;DHT22;32202;48.780;9.204;2022-09-09T14:13:49;29.70;39.20
46488;DHT22;32202;48.780;9.204;2022-09-09T14:16:16;28.90;39.80
46488;DHT22;32202;48.780;9.204;2022-09-09T14:18:43;28.90;39.90
46488;DHT22;32202;48.780;9.204;2022-09-09T14:21:09;29.00;39.90
46488;DHT22;32202;48.780;9.204;2022-09-09T14:23:35;29.10;39.70
46488;DHT22;32202;48.780;9.204;2022-09-09T14:26:01;29.20;39.80
46488;DHT22;32202;48.780;9.204;2022-09-09T14:28:26;29.40;39.20
46488;DHT22;32202;48.780;9.204;2022-09-09T14:30:54;28.80;39.60
46488;DHT22;32202;48.780;9.204;2022-09-09T14:33:19;27.90;40.60
46488;DHT22;32202;48.780;9.204;2022-09-09T14:35:45;27.60;41.20
46488;DHT22;32202;48.780;9.204;2022-09-09T14:38:11;27.10;41.80
46488;DHT22;32202;48.780;9.204;2022-09-09T14:40:38;27.20;41.80
46488;DHT22;32202;48.780;9.204;2022-09-09T14:43:04;26.90;42.00
46488;DHT22;32202;48.780;9.204;2022-09-09T14:45:31;26.70;42.30
46488;DHT22;32202;48.780;9.204;2022-09-09T14:47:56;26.50;42.10
46488;DHT22;32202;48.780;9.204;2022-09-09T14:50:23;26.40;42.40
46488;DHT22;32202;48.780;9.204;2022-09-09T14:52:49;26.30;42.40
46488;DHT22;32202;48.780;9.204;2022-09-09T14:55:15;26.30;42.70
46488;DHT22;32202;48.780;9.204;2022-09-09T14:57:42;26.30;42.80
46488;DHT22;32202;48.780;9.204;2022-09-09T15:00:09;26.20;42.70
46488;DHT22;32202;48.780;9.204;2022-09-09T15:02:35;26.10;42.70
46488;DHT22;32202;48.780;9.204;2022-09-09T15:05:00;26.00;42.80
46488;DHT22;32202;48.780;9.204;2022-09-09T15:07:27;25.90;42.80
46488;DHT22;32202;48.780;9.204;2022-09-09T15:09:54;25.90;42.40
46488;DHT22;32202;48.780;9.204;2022-09-09T15:12:20;25.90;42.70
46488;DHT22;32202;48.780;9.204;2022-09-09T15:14:46;25.80;42.30
46488;DHT22;32202;48.780;9.204;2022-09-09T15:17:12;25.60;42.70
46488;DHT22;32202;48.780;9.204;2022-09-09T15:19:38;25.10;43.40
46488;DHT22;32202;48.780;9.204;2022-09-09T15:22:05;24.90;43.70
46488;DHT22;32202;48.780;9.204;2022-09-09T15:24:33;24.70;44.20
46488;DHT22;32202;48.780;9.204;2022-09-09T15:26:59;24.60;44.50
46488;DHT22;32202;48.780;9.204;2022-09-09T15:29:25;24.60;44.60
46488;DHT22;32202;48.780;9.204;2022-09-09T15:31:51;24.60;44.60
46488;DHT22;32202;48.780;9.204;2022-09-09T15:34:18;24.60;44.80
46488;DHT22;32202;48.780;9.204;2022-09-09T15:36:44;24.70;44.90
46488;DHT22;32202;48.780;9.204;2022-09-09T15:39:13;24.70;44.60
46488;DHT22;32202;48.780;9.204;2022-09-09T15:41:44;24.80;44.70
46488;DHT22;32202;48.780;9.204;2022-09-09T15:44:11;24.70;44.80
46488;DHT22;32202;48.780;9.204;2022-09-09T15:46:50;24.60;45.30
46488;DHT22;32202;48.780;9.204;2022-09-09T15:49:26;24.40;45.40
46488;DHT22;32202;48.780;9.204;2022-09-09T15:51:54;24.30;45.90
46488;DHT22;32202;48.780;9.204;2022-09-09T15:54:22;24.20;46.20
46488;DHT22;32202;48.780;9.204;2022-09-09T15:56:55;24.00;46.50
46488;DHT22;32202;48.780;9.204;2022-09-09T15:59:22;23.90;46.70
46488;DHT22;32202;48.780;9.204;2022-09-09T16:01:48;23.70;46.70
46488;DHT22;32202;48.780;9.204;2022-09-09T16:04:18;23.60;47.20
46488;DHT22;32202;48.780;9.204;2022-09-09T16:06:50;23.40;47.30
46488;DHT22;32202;48.780;9.204;2022-09-09T16:09:16;23.30;47.00
46488;DHT22;32202;48.780;9.204;2022-09-09T16:11:41;23.20;47.00
46488;DHT22;32202;48.780;9.204;2022-09-09T16:14:07;23.10;47.20
46488;DHT22;32202;48.780;9.204;2022-09-09T16:16:33;23.00;47.20
46488;DHT22;32202;48.780;9.204;2022-09-09T16:19:06;22.90;47.30
46488;DHT22;32202;48.780;9.204;2022-09-09T16:21:34;22.90;47.50
46488;DHT22;32202;48.780;9.204;2022-09-09T16:24:02;22.80;47.60
46488;DHT22;32202;48.780;9.204;2022-09-09T16:26:30;22.80;47.90
46488;DHT22;32202;48.780;9.204;2022-09-09T16:28:56;22.80;47.90
46488;DHT22;32202;48.780;9.204;2022-09-09T16:31:26;22.80;48.20
46488;DHT22;32202;48.780;9.204;2022-09-09T16:33:52;22.70;48.50
46488;DHT22;32202;48.780;9.204;2022-09-09T16:36:20;22.70;48.90
46488;DHT22;32202;48.780;9.204;2022-09-09T16:38:46;22.80;49.10
46488;DHT22;32202;48.780;9.204;2022-09-09T16:41:13;22.70;49.30
46488;DHT22;32202;48.780;9.204;2022-09-09T16:43:40;22.70;50.50
46488;DHT22;32202;48.780;9.204;2022-09-09T16:46:17;22.70;51.00
46488;DHT22;32202;48.780;9.204;2022-09-09T16:48:44;22.60;51.70
46488;DHT22;32202;48.780;9.204;2022-09-09T16:51:32;22.40;51.40
46488;DHT22;32202;48.780;9.204;2022-09-09T16:54:00;22.30;51.60
46488;DHT22;32202;48.780;9.204;2022-09-09T16:56:28;22.10;51.10
46488;DHT22;32202;48.780;9.204;2022-09-09T16:58:57;22.00;50.70
46488;DHT22;32202;48.780;9.204;2022-09-09T17:01:25;21.80;51.10
46488;DHT22;32202;48.780;9.204;2022-09-09T17:03:58;21.70;51.40
46488;DHT22;32202;48.780;9.204;2022-09-09T17:06:24;21.60;52.10
46488;DHT22;32202;48.780;9.204;2022-09-09T17:08:58;21.40;52.40
46488;DHT22;32202;48.780;9.204;2022-09-09T17:11:26;21.40;52.70
46488;DHT22;32202;48.780;9.204;2022-09-09T17:13:52;21.40;53.00
46488;DHT22;32202;48.780;9.204;2022-09-09T17:16:19;21.30;53.10
46488;DHT22;32202;48.780;9.204;2022-09-09T17:18:51;21.20;53.60
46488;DHT22;32202;48.780;9.204;2022-09-09T17:21:19;21.10;53.90
46488;DHT22;32202;48.780;9.204;2022-09-09T17:23:45;20.80;54.60
46488;DHT22;32202;48.780;9.204;2022-09-09T17:26:13;20.70;55.20
46488;DHT22;32202;48.780;9.204;2022-09-09T17:28:41;20.50;55.70
46488;DHT22;32202;48.780;9.204;2022-09-09T17:31:08;20.50;56.30
46488;DHT22;32202;48.780;9.204;2022-09-09T17:33:36;20.40;56.60
46488;DHT22;32202;48.780;9.204;2022-09-09T17:36:10;20.40;56.80
46488;DHT22;32202;48.780;9.204;2022-09-09T17:38:37;20.40;57.70